createdAt,value
2023-02-03T00:00:42.941Z,4.32
2023-02-03T00:03:10.178Z,5.47
2023-02-03T00:05:37.621Z,3.35
2023-02-03T00:08:05.522Z,3.42
2023-02-03T00:10:33.527Z,6.72
2023-02-03T00:13:00.757Z,2.67
2023-02-03T00:15:27.909Z,3.75
2023-02-03T00:17:55.057Z,3.83
2023-02-03T00:20:22.145Z,5.85
2023-02-03T00:22:49.227Z,5.60
2023-02-03T00:25:16.445Z,4.30
2023-02-03T00:27:43.577Z,5.15
2023-02-03T00:30:11.054Z,4.57
2023-02-03T00:32:38.409Z,4.72
2023-02-03T00:35:06.074Z,4.07
2023-02-03T00:37:33.220Z,5.43
2023-02-03T00:40:00.334Z,1.98
2023-02-03T00:42:27.413Z,3.92
2023-02-03T00:44:54.501Z,5.28
2023-02-03T00:47:21.609Z,8.07
2023-02-03T00:49:50.434Z,4.45
2023-02-03T00:52:17.531Z,7.25
2023-02-03T00:54:44.834Z,5.55
2023-02-03T00:57:11.906Z,7.63
2023-02-03T00:59:38.962Z,4.15
2023-02-03T01:02:06.169Z,2.25
2023-02-03T01:04:33.359Z,6.68
2023-02-03T01:07:00.407Z,5.22
2023-02-03T01:09:27.517Z,5.40
2023-02-03T01:11:54.716Z,8.02
2023-02-03T01:14:21.802Z,5.25
2023-02-03T01:16:48.876Z,4.60
2023-02-03T01:19:16.806Z,8.85
2023-02-03T01:21:43.954Z,5.32
2023-02-03T01:24:11.115Z,6.15
2023-02-03T01:26:38.236Z,4.57
2023-02-03T01:29:05.358Z,6.95
2023-02-03T01:31:39.442Z,7.55
2023-02-03T01:34:07.406Z,8.50
2023-02-03T01:36:35.189Z,7.78
2023-02-03T01:39:02.911Z,4.85
2023-02-03T01:41:34.068Z,3.15
2023-02-03T01:44:01.781Z,8.23
2023-02-03T01:46:39.529Z,5.45
2023-02-03T01:49:06.590Z,10.82
2023-02-03T01:51:33.703Z,5.80
2023-02-03T01:54:00.992Z,9.27
2023-02-03T01:56:29.623Z,7.93
2023-02-03T01:58:58.964Z,5.85
2023-02-03T02:01:26.221Z,7.88
2023-02-03T02:03:55.951Z,3.92
2023-02-03T02:06:23.051Z,5.78
2023-02-03T02:08:51.990Z,5.03
2023-02-03T02:11:21.359Z,5.85
2023-02-03T02:13:49.493Z,6.38
2023-02-03T02:16:18.715Z,8.88
2023-02-03T02:18:45.908Z,5.53
2023-02-03T02:21:19.382Z,5.93
2023-02-03T02:23:49.521Z,6.47
2023-02-03T02:26:16.564Z,4.32
2023-02-03T02:28:53.036Z,9.52
2023-02-03T02:31:20.206Z,6.50
2023-02-03T02:33:53.671Z,4.95
2023-02-03T02:36:40.797Z,3.28
2023-02-03T02:39:16.367Z,8.25
2023-02-03T02:41:45.646Z,7.25
2023-02-03T02:44:45.183Z,7.97
2023-02-03T02:47:19.558Z,8.20
2023-02-03T02:49:55.865Z,5.45
2023-02-03T02:52:24.442Z,9.50
2023-02-03T02:54:53.337Z,9.30
2023-02-03T02:57:22.015Z,4.57
2023-02-03T02:59:49.369Z,5.05
2023-02-03T03:02:17.141Z,3.25
2023-02-03T03:04:45.586Z,6.13
2023-02-03T03:07:15.386Z,4.70
2023-02-03T03:09:44.953Z,6.55
2023-02-03T03:12:17.938Z,5.80
2023-02-03T03:14:46.609Z,4.25
2023-02-03T03:17:17.985Z,5.22
2023-02-03T03:19:49.849Z,3.67
2023-02-03T03:22:18.335Z,3.03
2023-02-03T03:24:51.319Z,4.97
2023-02-03T03:27:23.601Z,1.85
2023-02-03T03:29:55.632Z,4.40
2023-02-03T03:34:49.773Z,3.47
2023-02-03T03:37:19.983Z,6.10
2023-02-03T03:40:00.665Z,4.20
2023-02-03T03:42:37.167Z,4.80
2023-02-03T03:45:07.261Z,1.88
2023-02-03T03:47:37.357Z,3.10
2023-02-03T03:50:06.695Z,3.00
2023-02-03T03:52:35.432Z,10.10
2023-02-03T03:55:03.917Z,4.70
2023-02-03T03:57:32.795Z,3.10
2023-02-03T04:00:00.914Z,5.53
2023-02-03T04:02:29.254Z,7.72
2023-02-03T04:04:57.119Z,1.83
2023-02-03T04:07:24.217Z,3.08
2023-02-03T04:09:51.317Z,2.90
2023-02-03T04:12:25.235Z,4.75
2023-02-03T04:14:52.265Z,6.15
2023-02-03T04:17:20.480Z,5.50
2023-02-03T04:19:48.359Z,7.07
2023-02-03T04:22:15.582Z,3.55
2023-02-03T04:24:42.667Z,4.55
2023-02-03T04:27:09.704Z,3.65
2023-02-03T04:29:36.847Z,6.18
2023-02-03T04:32:03.991Z,6.45
2023-02-03T04:34:31.169Z,5.75
2023-02-03T04:36:58.210Z,5.25
2023-02-03T04:39:25.376Z,3.95
2023-02-03T04:41:52.485Z,5.15
2023-02-03T04:44:19.540Z,4.65
2023-02-03T04:46:46.742Z,1.38
2023-02-03T04:49:13.880Z,5.78
2023-02-03T04:51:40.949Z,7.07
2023-02-03T04:54:08.061Z,5.22
2023-02-03T04:56:35.147Z,3.13
2023-02-03T04:59:02.568Z,2.10
2023-02-03T05:01:29.626Z,6.88
2023-02-03T05:03:56.701Z,5.00
2023-02-03T05:06:28.833Z,9.07
2023-02-03T05:08:55.899Z,8.48
2023-02-03T05:11:23.337Z,6.63
2023-02-03T05:13:50.525Z,6.35
2023-02-03T05:16:17.742Z,4.90
2023-02-03T05:18:44.856Z,3.17
2023-02-03T05:21:11.948Z,5.05
2023-02-03T05:23:38.974Z,5.75
2023-02-03T05:26:06.256Z,4.22
2023-02-03T05:28:33.399Z,6.13
2023-02-03T05:31:01.521Z,11.13
2023-02-03T05:33:28.972Z,4.93
2023-02-03T05:35:56.148Z,2.63
2023-02-03T05:38:23.224Z,4.82
2023-02-03T05:41:09.046Z,4.47
2023-02-03T05:43:36.483Z,3.58
2023-02-03T05:46:04.817Z,7.20
2023-02-03T05:48:31.975Z,5.07
2023-02-03T05:50:59.050Z,4.18
2023-02-03T05:53:27.133Z,8.63
2023-02-03T05:55:54.481Z,5.05
2023-02-03T05:58:21.526Z,5.47
2023-02-03T06:00:48.566Z,8.27
2023-02-03T06:03:15.784Z,4.25
2023-02-03T06:05:43.703Z,2.90
2023-02-03T06:08:10.742Z,4.93
2023-02-03T06:10:37.911Z,4.35
2023-02-03T06:13:15.855Z,4.97
2023-02-03T06:15:42.992Z,7.05
2023-02-03T06:18:10.097Z,5.43
2023-02-03T06:20:37.151Z,7.45
2023-02-03T06:23:04.267Z,5.63
2023-02-03T06:25:32.630Z,5.40
2023-02-03T06:28:00.018Z,5.85
2023-02-03T06:30:27.515Z,6.80
2023-02-03T06:32:55.304Z,5.72
2023-02-03T06:35:22.372Z,4.93
2023-02-03T06:37:49.543Z,10.07
2023-02-03T06:40:16.642Z,10.85
2023-02-03T06:42:47.260Z,4.65
2023-02-03T06:45:14.856Z,6.95
2023-02-03T06:47:46.004Z,8.20
2023-02-03T06:50:16.526Z,8.13
2023-02-03T06:52:43.672Z,6.28
2023-02-03T06:55:10.938Z,6.45
2023-02-03T06:57:43.651Z,8.70
2023-02-03T07:00:13.622Z,6.38
2023-02-03T07:02:41.409Z,6.03
2023-02-03T07:05:08.719Z,5.57
2023-02-03T07:07:36.022Z,8.05
2023-02-03T07:10:03.181Z,6.45
2023-02-03T07:12:30.236Z,6.22
2023-02-03T07:14:57.308Z,12.77
2023-02-03T07:17:24.537Z,6.90
2023-02-03T07:19:51.626Z,9.43
2023-02-03T07:22:18.659Z,8.60
2023-02-03T07:24:45.837Z,5.03
2023-02-03T07:27:12.964Z,8.80
2023-02-03T07:29:40.128Z,5.85
2023-02-03T07:32:07.304Z,3.88
2023-02-03T07:34:34.427Z,6.47
2023-02-03T07:37:01.582Z,6.25
2023-02-03T07:39:28.707Z,6.45
2023-02-03T07:41:55.801Z,7.10
2023-02-03T07:44:22.901Z,6.93
2023-02-03T07:46:49.934Z,8.07
2023-02-03T07:49:16.999Z,8.05
2023-02-03T07:51:44.081Z,6.10
2023-02-03T07:54:11.190Z,9.90
2023-02-03T07:56:38.351Z,6.90
2023-02-03T07:59:05.476Z,5.47
2023-02-03T08:01:34.153Z,5.75
2023-02-03T08:04:02.084Z,6.88
2023-02-03T08:06:30.560Z,5.63
2023-02-03T08:08:57.692Z,4.03
2023-02-03T08:11:24.752Z,4.90
2023-02-03T08:13:51.835Z,7.47
2023-02-03T08:16:19.046Z,6.18
2023-02-03T08:18:46.121Z,3.95
2023-02-03T08:21:13.213Z,7.65
2023-02-03T08:23:40.325Z,3.70
2023-02-03T08:26:07.576Z,8.50
2023-02-03T08:28:34.653Z,7.13
2023-02-03T08:31:01.888Z,4.82
2023-02-03T08:33:29.101Z,7.18
2023-02-03T08:35:56.933Z,3.63
2023-02-03T08:38:24.085Z,4.22
2023-02-03T08:40:51.488Z,3.70
2023-02-03T08:43:18.689Z,8.60
2023-02-03T08:45:46.061Z,9.23
2023-02-03T08:48:13.316Z,4.07
2023-02-03T08:50:42.726Z,7.97
2023-02-03T08:53:09.810Z,5.45
2023-02-03T08:55:39.558Z,7.95
2023-02-03T08:58:06.735Z,8.63
2023-02-03T09:00:33.860Z,5.15
2023-02-03T09:03:00.948Z,6.85
2023-02-03T09:05:28.115Z,6.25
2023-02-03T09:07:55.177Z,6.53
2023-02-03T09:10:22.260Z,7.45
2023-02-03T09:12:49.393Z,9.45
2023-02-03T09:15:16.549Z,10.88
2023-02-03T09:17:43.650Z,4.45
2023-02-03T09:20:13.242Z,9.25
2023-02-03T09:22:40.449Z,8.45
2023-02-03T09:25:10.941Z,13.57
2023-02-03T09:27:38.600Z,6.85
2023-02-03T09:30:08.786Z,10.05
2023-02-03T09:32:35.942Z,5.97
2023-02-03T09:35:03.249Z,6.13
2023-02-03T09:37:33.064Z,11.77
2023-02-03T09:40:00.290Z,6.40
2023-02-03T09:42:28.669Z,13.18
2023-02-03T09:44:59.283Z,8.93
2023-02-03T09:47:29.661Z,10.45
2023-02-03T09:50:02.645Z,3.33
2023-02-03T09:52:37.441Z,9.00
2023-02-03T09:55:29.044Z,13.48
2023-02-03T09:58:04.526Z,11.73
2023-02-03T10:00:43.791Z,14.63
2023-02-03T10:03:20.149Z,6.55
2023-02-03T10:05:58.963Z,10.52
2023-02-03T10:08:32.238Z,7.88
2023-02-03T10:11:10.109Z,7.72
2023-02-03T10:13:40.330Z,4.43
2023-02-03T10:16:07.464Z,9.93
2023-02-03T10:18:37.553Z,15.65
2023-02-03T10:21:06.977Z,8.88
2023-02-03T10:23:39.752Z,7.63
2023-02-03T10:26:09.144Z,8.80
2023-02-03T10:28:39.404Z,10.43
2023-02-03T10:31:13.768Z,10.05
2023-02-03T10:33:41.083Z,6.32
2023-02-03T10:36:15.251Z,8.63
2023-02-03T10:38:45.442Z,7.63
2023-02-03T10:41:12.676Z,4.32
2023-02-03T10:43:51.462Z,10.00
2023-02-03T10:46:21.628Z,8.90
2023-02-03T10:48:49.639Z,6.97
2023-02-03T10:51:27.402Z,7.82
2023-02-03T10:53:54.658Z,14.80
2023-02-03T10:56:23.860Z,13.60
2023-02-03T10:58:54.292Z,17.38
2023-02-03T11:01:24.387Z,8.25
2023-02-03T11:04:04.813Z,13.93
2023-02-03T11:06:32.761Z,7.70
2023-02-03T11:08:59.997Z,13.00
2023-02-03T11:11:28.389Z,12.52
2023-02-03T11:14:11.395Z,7.38
2023-02-03T11:16:40.146Z,13.70
2023-02-03T11:19:11.330Z,15.02
2023-02-03T11:21:38.445Z,13.85
2023-02-03T11:24:07.437Z,12.85
2023-02-03T11:26:36.481Z,12.50
2023-02-03T11:29:06.440Z,14.45
2023-02-03T11:31:34.924Z,9.13
2023-02-03T11:34:15.494Z,7.78
2023-02-03T11:36:42.739Z,16.85
2023-02-03T11:39:11.807Z,18.23
2023-02-03T11:41:40.061Z,13.30
2023-02-03T11:44:17.702Z,11.68
2023-02-03T11:46:45.426Z,19.10
2023-02-03T11:49:25.165Z,13.18
2023-02-03T11:51:55.832Z,16.10
2023-02-03T11:54:25.784Z,19.88
2023-02-03T11:57:09.438Z,14.68
2023-02-03T11:59:56.860Z,17.33
2023-02-03T12:02:39.297Z,15.48
2023-02-03T12:05:18.445Z,15.63
2023-02-03T12:07:45.556Z,15.38
2023-02-03T12:10:15.628Z,21.90
2023-02-03T12:12:51.621Z,16.80
2023-02-03T12:15:18.746Z,14.57
2023-02-03T12:17:52.180Z,12.27
2023-02-03T12:20:35.369Z,17.00
2023-02-03T12:23:11.379Z,10.85
2023-02-03T12:25:57.219Z,9.60
2023-02-03T12:28:33.290Z,9.85
2023-02-03T12:31:05.276Z,16.85
2023-02-03T12:33:35.537Z,13.75
2023-02-03T12:36:05.891Z,16.38
2023-02-03T12:38:37.163Z,14.80
2023-02-03T12:41:10.621Z,14.32
2023-02-03T12:43:49.227Z,14.40
2023-02-03T12:46:23.202Z,11.82
2023-02-03T12:48:55.714Z,16.38
2023-02-03T12:51:52.337Z,13.82
2023-02-03T12:54:33.904Z,12.15
2023-02-03T12:57:11.419Z,11.30
2023-02-03T12:59:40.666Z,14.35
2023-02-03T13:02:25.649Z,17.08
2023-02-03T13:04:57.055Z,14.57
2023-02-03T13:07:26.946Z,16.73
2023-02-03T13:09:57.833Z,20.83
2023-02-03T13:12:41.150Z,21.40
2023-02-03T13:15:17.172Z,16.13
2023-02-03T13:17:47.146Z,20.50
2023-02-03T13:20:24.881Z,13.77
2023-02-03T13:22:53.293Z,14.13
2023-02-03T13:25:35.728Z,13.95
2023-02-03T13:28:11.949Z,14.43
2023-02-03T13:30:51.506Z,12.55
2023-02-03T13:33:33.719Z,17.38
2023-02-03T13:38:33.835Z,21.45
2023-02-03T13:41:10.620Z,19.10
2023-02-03T13:43:44.442Z,24.98
2023-02-03T13:46:21.051Z,19.90
2023-02-03T13:48:48.456Z,14.23
2023-02-03T13:51:17.212Z,12.88
2023-02-03T13:53:45.628Z,17.42
2023-02-03T13:56:21.702Z,16.40
2023-02-03T13:59:01.114Z,25.23
2023-02-03T14:01:36.984Z,12.60
2023-02-03T14:04:05.414Z,13.82
2023-02-03T14:06:38.752Z,16.25
2023-02-03T14:09:22.833Z,18.35
2023-02-03T14:12:13.057Z,11.68
2023-02-03T14:14:40.229Z,11.85
2023-02-03T14:17:09.513Z,19.35
2023-02-03T14:19:39.534Z,14.57
2023-02-03T14:22:08.841Z,22.65
2023-02-03T14:24:37.485Z,12.07
2023-02-03T14:27:05.854Z,13.25
2023-02-03T14:29:37.897Z,14.95
2023-02-03T14:34:34.850Z,12.52
2023-02-03T14:37:22.719Z,18.70
2023-02-03T14:40:12.723Z,24.27
2023-02-03T14:42:45.859Z,16.63
2023-02-03T14:45:20.209Z,13.35
2023-02-03T14:48:01.154Z,16.08
2023-02-03T14:50:48.473Z,26.70
2023-02-03T14:53:15.610Z,14.00
2023-02-03T14:56:08.973Z,17.27
2023-02-03T14:58:47.079Z,22.92
2023-02-03T15:01:33.009Z,17.20
2023-02-03T15:04:20.481Z,14.82
2023-02-03T15:06:49.552Z,13.75
2023-02-03T15:09:29.223Z,11.57
2023-02-03T15:11:56.412Z,17.67
2023-02-03T15:14:23.819Z,17.33
2023-02-03T15:16:58.506Z,16.75
2023-02-03T15:19:27.380Z,13.65
2023-02-03T15:21:54.634Z,14.07
2023-02-03T15:24:23.933Z,16.42
2023-02-03T15:26:52.485Z,13.07
2023-02-03T15:29:24.790Z,12.13
2023-02-03T15:31:54.836Z,17.17
2023-02-03T15:34:25.067Z,8.23
2023-02-03T15:36:53.795Z,17.60
2023-02-03T15:39:32.490Z,12.48
2023-02-03T15:42:00.406Z,10.65
2023-02-03T15:44:27.616Z,13.18
2023-02-03T15:46:55.497Z,13.82
2023-02-03T15:49:25.777Z,20.65
2023-02-03T15:51:56.865Z,13.73
2023-02-03T15:54:30.450Z,16.13
2023-02-03T15:57:07.578Z,19.40
2023-02-03T15:59:36.009Z,12.43
2023-02-03T16:02:08.902Z,13.85
2023-02-03T16:04:36.241Z,14.90
2023-02-03T16:07:03.363Z,13.98
2023-02-03T16:09:33.722Z,18.75
2023-02-03T16:12:26.951Z,16.30
2023-02-03T16:14:55.313Z,25.17
2023-02-03T16:17:25.472Z,16.45
2023-02-03T16:19:53.203Z,19.63
2023-02-03T16:22:32.310Z,15.88
2023-02-03T16:25:13.639Z,16.92
2023-02-03T16:27:40.782Z,17.93
2023-02-03T16:30:26.612Z,21.42
2023-02-03T16:33:33.565Z,12.88
2023-02-03T16:36:29.806Z,23.42
2023-02-03T16:39:17.217Z,13.68
2023-02-03T16:42:03.045Z,16.25
2023-02-03T16:44:48.970Z,15.95
2023-02-03T16:47:44.043Z,13.20
2023-02-03T16:50:40.486Z,18.63
2023-02-03T16:53:12.773Z,16.13
2023-02-03T16:55:40.142Z,20.55
2023-02-03T16:58:07.285Z,17.02
2023-02-03T17:00:34.737Z,18.52
2023-02-03T17:03:04.426Z,19.50
2023-02-03T17:05:32.173Z,15.63
2023-02-03T17:07:59.539Z,25.55
2023-02-03T17:10:27.350Z,35.60
2023-02-03T17:12:54.616Z,24.13
2023-02-03T17:15:21.677Z,27.92
2023-02-03T17:17:48.755Z,19.60
2023-02-03T17:20:16.025Z,17.45
2023-02-03T17:22:43.377Z,23.30
2023-02-03T17:25:10.588Z,16.42
2023-02-03T17:27:37.712Z,18.30
2023-02-03T17:30:05.542Z,21.70
2023-02-03T17:32:32.646Z,18.92
2023-02-03T17:34:59.728Z,20.90
2023-02-03T17:37:26.779Z,23.63
2023-02-03T17:53:38.665Z,22.92
2023-02-03T17:56:06.985Z,26.85
2023-02-03T17:58:34.282Z,20.08
2023-02-03T18:01:01.390Z,15.77
2023-02-03T18:03:28.579Z,27.17
2023-02-03T18:05:55.732Z,24.65
2023-02-03T18:08:25.300Z,14.25
2023-02-03T18:10:52.535Z,24.65
2023-02-03T18:13:23.402Z,16.90
2023-02-03T18:15:50.493Z,17.58
2023-02-03T18:18:17.657Z,20.77
2023-02-03T18:20:44.728Z,25.55
2023-02-03T18:23:11.800Z,17.23
2023-02-03T18:25:38.854Z,20.33
2023-02-03T18:28:06.188Z,25.25
2023-02-03T18:30:33.690Z,31.60
2023-02-03T18:33:01.968Z,26.98
2023-02-03T18:35:29.596Z,17.48
2023-02-03T18:37:56.771Z,19.92
2023-02-03T18:40:23.939Z,21.48
2023-02-03T18:42:51.104Z,21.73
2023-02-03T18:45:18.257Z,16.40
2023-02-03T18:47:45.388Z,16.08
2023-02-03T18:50:12.540Z,23.20
2023-02-03T18:52:39.661Z,23.98
2023-02-03T18:55:07.047Z,18.23
2023-02-03T18:57:34.218Z,23.38
2023-02-03T19:00:02.332Z,14.75
2023-02-03T19:02:29.428Z,20.30
2023-02-03T19:04:56.510Z,20.60
2023-02-03T19:07:24.396Z,13.35
2023-02-03T19:09:51.518Z,17.80
2023-02-03T19:12:18.732Z,14.93
2023-02-03T19:14:45.869Z,17.80
2023-02-03T19:17:13.175Z,15.35
2023-02-03T19:19:40.227Z,19.25
2023-02-03T19:22:07.284Z,20.80
2023-02-03T19:24:34.409Z,26.08
2023-02-03T19:27:01.496Z,50.58
2023-02-03T19:29:28.694Z,31.08
2023-02-03T19:31:56.151Z,19.00
2023-02-03T19:34:23.334Z,21.33
2023-02-03T19:36:51.811Z,22.48
2023-02-03T19:39:21.100Z,16.00
2023-02-03T19:41:48.296Z,22.92
2023-02-03T19:44:15.591Z,28.50
2023-02-03T19:46:42.718Z,17.95
2023-02-03T19:49:13.218Z,18.73
2023-02-03T19:51:40.851Z,19.80
2023-02-03T19:54:08.172Z,21.27
2023-02-03T19:56:35.284Z,24.88
2023-02-03T19:59:03.294Z,28.45
2023-02-03T20:01:30.946Z,22.35
2023-02-03T20:03:58.609Z,24.30
2023-02-03T20:06:26.086Z,17.27
2023-02-03T20:08:53.732Z,21.02
2023-02-03T20:11:21.017Z,12.77
2023-02-03T20:13:48.385Z,23.45
2023-02-03T20:16:15.619Z,22.58
2023-02-03T20:18:42.753Z,15.85
2023-02-03T20:21:09.912Z,18.50
2023-02-03T20:23:37.362Z,19.80
2023-02-03T20:26:04.546Z,27.42
2023-02-03T20:28:31.695Z,16.42
2023-02-03T20:31:00.894Z,18.27
2023-02-03T20:33:29.296Z,20.13
2023-02-03T20:35:57.468Z,19.60
2023-02-03T20:38:25.128Z,17.85
2023-02-03T20:40:52.214Z,22.35
2023-02-03T20:43:23.542Z,17.80
2023-02-03T20:45:51.611Z,12.02
2023-02-03T20:48:19.791Z,19.98
2023-02-03T20:50:47.983Z,26.02
2023-02-03T20:53:16.854Z,20.05
2023-02-03T20:55:44.006Z,16.38
2023-02-03T20:58:27.279Z,24.45
2023-02-03T21:00:57.156Z,15.32
2023-02-03T21:03:43.674Z,9.70
2023-02-03T21:06:17.917Z,31.83
2023-02-03T21:08:46.084Z,16.27
2023-02-03T21:11:14.721Z,23.17
2023-02-03T21:13:43.641Z,19.80
2023-02-03T21:16:16.894Z,58.60
2023-02-03T21:18:53.105Z,27.30
2023-02-03T21:21:24.829Z,26.17
2023-02-03T21:23:52.709Z,15.77
2023-02-03T21:26:27.016Z,13.98
2023-02-03T21:28:55.951Z,17.63
2023-02-03T21:31:26.106Z,15.07
2023-02-03T21:33:54.321Z,18.95
2023-02-03T21:36:26.187Z,10.13
2023-02-03T21:38:55.070Z,17.92
2023-02-03T21:41:23.463Z,23.77
2023-02-03T21:43:55.547Z,13.85
2023-02-03T21:48:50.873Z,9.55
2023-02-03T21:51:20.651Z,16.65
2023-02-03T21:53:50.773Z,15.00
2023-02-03T21:56:19.881Z,15.70
2023-02-03T21:58:48.000Z,21.30
2023-02-03T22:01:18.831Z,23.40
2023-02-03T22:03:47.671Z,14.95
2023-02-03T22:06:14.809Z,14.13
2023-02-03T22:08:43.090Z,19.20
2023-02-03T22:11:10.424Z,14.43
2023-02-03T22:13:38.007Z,20.65
2023-02-03T22:16:05.552Z,22.90
2023-02-03T22:18:32.810Z,17.70
2023-02-03T22:21:00.047Z,27.77
2023-02-03T22:23:27.317Z,24.92
2023-02-03T22:25:54.501Z,22.42
2023-02-03T22:28:21.678Z,17.35
2023-02-03T22:30:48.910Z,28.40
2023-02-03T22:33:16.151Z,17.85
2023-02-03T22:35:43.349Z,26.40
2023-02-03T22:38:10.524Z,21.05
2023-02-03T22:40:37.698Z,22.92
2023-02-03T22:43:05.009Z,41.33
2023-02-03T22:45:32.181Z,31.63
2023-02-03T22:48:00.472Z,18.25
2023-02-03T22:50:35.478Z,31.33
2023-02-03T22:53:04.204Z,29.25
2023-02-03T22:55:31.955Z,26.35
2023-02-03T22:57:59.221Z,35.00
2023-02-03T23:00:26.963Z,14.13
2023-02-03T23:02:54.259Z,23.85
2023-02-03T23:05:21.840Z,17.90
2023-02-03T23:07:49.267Z,17.63
2023-02-03T23:10:17.973Z,16.83
2023-02-03T23:12:45.551Z,16.58
2023-02-03T23:15:12.853Z,17.42
2023-02-03T23:17:40.596Z,15.02
2023-02-03T23:20:09.068Z,18.35
2023-02-03T23:22:36.212Z,24.02
2023-02-03T23:25:03.686Z,16.80
2023-02-03T23:27:30.825Z,20.88
2023-02-03T23:29:58.160Z,25.98
2023-02-03T23:32:25.294Z,21.13
2023-02-03T23:35:11.349Z,18.15
2023-02-03T23:37:38.503Z,15.50
2023-02-03T23:40:05.953Z,33.63
2023-02-03T23:42:33.097Z,15.60
2023-02-03T23:45:00.291Z,21.77
2023-02-03T23:47:27.440Z,22.00
2023-02-03T23:49:54.588Z,25.10
2023-02-03T23:52:21.722Z,16.13
2023-02-03T23:54:48.839Z,14.38
2023-02-03T23:57:15.955Z,15.65
2023-02-03T23:59:43.206Z,24.83
